sensor_id;sensor_type;location;lat;lon;timestamp;P1;durP1;ratioP1;P2;durP2;ratioP2
19388;SDS011;9830;41.876;23.474;2022-12-18T00:01:18;5.00;;;4.57;;
19388;SDS011;9830;41.876;23.474;2022-12-18T00:03:52;6.93;;;4.37;;
19388;SDS011;9830;41.876;23.474;2022-12-18T00:06:19;4.60;;;3.80;;
19388;SDS011;9830;41.876;23.474;2022-12-18T00:08:45;7.27;;;3.90;;
19388;SDS011;9830;41.876;23.474;2022-12-18T00:11:12;21.07;;;7.33;;
19388;SDS011;9830;41.876;23.474;2022-12-18T00:13:43;3.87;;;3.07;;
19388;SDS011;9830;41.876;23.474;2022-12-18T00:16:11;4.77;;;4.37;;
19388;SDS011;9830;41.876;23.474;2022-12-18T00:18:38;9.03;;;5.80;;
19388;SDS011;9830;41.876;23.474;2022-12-18T00:21:06;13.37;;;5.40;;
19388;SDS011;9830;41.876;23.474;2022-12-18T00:23:34;6.17;;;4.60;;
19388;SDS011;9830;41.876;23.474;2022-12-18T00:26:02;9.63;;;5.40;;
19388;SDS011;9830;41.876;23.474;2022-12-18T00:28:30;8.53;;;5.13;;
19388;SDS011;9830;41.876;23.474;2022-12-18T00:31:02;5.57;;;4.13;;
19388;SDS011;9830;41.876;23.474;2022-12-18T00:33:33;6.80;;;5.20;;
19388;SDS011;9830;41.876;23.474;2022-12-18T00:36:00;4.70;;;4.10;;
19388;SDS011;9830;41.876;23.474;2022-12-18T00:38:27;2.27;;;2.17;;
19388;SDS011;9830;41.876;23.474;2022-12-18T00:40:53;7.77;;;4.50;;
19388;SDS011;9830;41.876;23.474;2022-12-18T00:43:19;8.23;;;6.90;;
19388;SDS011;9830;41.876;23.474;2022-12-18T00:45:45;10.40;;;4.47;;
19388;SDS011;9830;41.876;23.474;2022-12-18T00:48:10;9.30;;;4.73;;
19388;SDS011;9830;41.876;23.474;2022-12-18T00:50:36;10.00;;;5.70;;
19388;SDS011;9830;41.876;23.474;2022-12-18T00:53:02;7.93;;;4.30;;
19388;SDS011;9830;41.876;23.474;2022-12-18T00:55:27;6.17;;;4.17;;
19388;SDS011;9830;41.876;23.474;2022-12-18T00:57:53;12.70;;;4.23;;
19388;SDS011;9830;41.876;23.474;2022-12-18T01:00:19;3.37;;;3.07;;
19388;SDS011;9830;41.876;23.474;2022-12-18T01:02:44;8.93;;;3.60;;
19388;SDS011;9830;41.876;23.474;2022-12-18T01:05:11;2.07;;;1.77;;
19388;SDS011;9830;41.876;23.474;2022-12-18T01:07:37;4.70;;;3.10;;
19388;SDS011;9830;41.876;23.474;2022-12-18T01:10:03;2.23;;;2.00;;
19388;SDS011;9830;41.876;23.474;2022-12-18T01:12:30;20.87;;;3.10;;
19388;SDS011;9830;41.876;23.474;2022-12-18T01:14:56;18.73;;;2.10;;
19388;SDS011;9830;41.876;23.474;2022-12-18T01:17:22;1.20;;;1.20;;
19388;SDS011;9830;41.876;23.474;2022-12-18T01:19:47;4.10;;;1.80;;
19388;SDS011;9830;41.876;23.474;2022-12-18T01:22:13;2.30;;;1.80;;
19388;SDS011;9830;41.876;23.474;2022-12-18T01:24:39;2.23;;;1.50;;
19388;SDS011;9830;41.876;23.474;2022-12-18T01:27:04;1.27;;;1.13;;
19388;SDS011;9830;41.876;23.474;2022-12-18T01:29:30;4.03;;;1.80;;
19388;SDS011;9830;41.876;23.474;2022-12-18T01:31:56;2.27;;;1.53;;
19388;SDS011;9830;41.876;23.474;2022-12-18T01:34:22;1.20;;;1.17;;
19388;SDS011;9830;41.876;23.474;2022-12-18T01:36:48;14.97;;;3.47;;
19388;SDS011;9830;41.876;23.474;2022-12-18T01:39:14;7.20;;;0.67;;
19388;SDS011;9830;41.876;23.474;2022-12-18T01:41:40;1.57;;;0.80;;
19388;SDS011;9830;41.876;23.474;2022-12-18T01:49:59;0.80;;;0.73;;
19388;SDS011;9830;41.876;23.474;2022-12-18T01:52:31;2.43;;;0.43;;
19388;SDS011;9830;41.876;23.474;2022-12-18T01:54:59;0.57;;;0.57;;
19388;SDS011;9830;41.876;23.474;2022-12-18T01:57:26;0.83;;;0.43;;
19388;SDS011;9830;41.876;23.474;2022-12-18T01:59:53;2.30;;;1.77;;
19388;SDS011;9830;41.876;23.474;2022-12-18T02:02:24;1.77;;;1.10;;
19388;SDS011;9830;41.876;23.474;2022-12-18T02:04:53;1.47;;;0.77;;
19388;SDS011;9830;41.876;23.474;2022-12-18T02:12:56;1.37;;;1.27;;
19388;SDS011;9830;41.876;23.474;2022-12-18T02:15:33;0.97;;;0.90;;
19388;SDS011;9830;41.876;23.474;2022-12-18T02:18:10;1.43;;;0.60;;
19388;SDS011;9830;41.876;23.474;2022-12-18T02:20:47;3.70;;;0.50;;
19388;SDS011;9830;41.876;23.474;2022-12-18T02:23:24;0.87;;;0.87;;
19388;SDS011;9830;41.876;23.474;2022-12-18T02:29:06;2.30;;;1.97;;
19388;SDS011;9830;41.876;23.474;2022-12-18T02:31:39;8.80;;;2.27;;
19388;SDS011;9830;41.876;23.474;2022-12-18T02:34:08;1.63;;;1.50;;
19388;SDS011;9830;41.876;23.474;2022-12-18T02:36:36;9.67;;;2.67;;
19388;SDS011;9830;41.876;23.474;2022-12-18T02:39:05;4.30;;;2.13;;
19388;SDS011;9830;41.876;23.474;2022-12-18T02:41:34;1.20;;;1.10;;
19388;SDS011;9830;41.876;23.474;2022-12-18T02:44:06;0.73;;;0.73;;
19388;SDS011;9830;41.876;23.474;2022-12-18T02:49:01;0.80;;;0.80;;
19388;SDS011;9830;41.876;23.474;2022-12-18T02:52:01;6.17;;;2.27;;
19388;SDS011;9830;41.876;23.474;2022-12-18T02:54:30;0.80;;;0.73;;
19388;SDS011;9830;41.876;23.474;2022-12-18T03:00:04;1.53;;;1.43;;
19388;SDS011;9830;41.876;23.474;2022-12-18T03:02:37;1.20;;;0.57;;
19388;SDS011;9830;41.876;23.474;2022-12-18T03:05:16;4.00;;;1.67;;
19388;SDS011;9830;41.876;23.474;2022-12-18T03:08:24;0.57;;;0.57;;
19388;SDS011;9830;41.876;23.474;2022-12-18T03:10:58;15.67;;;1.43;;
19388;SDS011;9830;41.876;23.474;2022-12-18T03:13:40;0.50;;;0.50;;
19388;SDS011;9830;41.876;23.474;2022-12-18T03:16:18;1.97;;;1.70;;
19388;SDS011;9830;41.876;23.474;2022-12-18T03:18:53;0.87;;;0.63;;
19388;SDS011;9830;41.876;23.474;2022-12-18T03:21:26;1.10;;;1.03;;
19388;SDS011;9830;41.876;23.474;2022-12-18T03:23:54;2.53;;;0.97;;
19388;SDS011;9830;41.876;23.474;2022-12-18T03:26:23;1.03;;;1.03;;
19388;SDS011;9830;41.876;23.474;2022-12-18T03:28:53;0.43;;;0.43;;
19388;SDS011;9830;41.876;23.474;2022-12-18T03:31:24;2.10;;;0.77;;
19388;SDS011;9830;41.876;23.474;2022-12-18T03:33:54;2.17;;;1.10;;
19388;SDS011;9830;41.876;23.474;2022-12-18T03:36:22;2.53;;;2.17;;
19388;SDS011;9830;41.876;23.474;2022-12-18T03:38:49;0.50;;;0.50;;
19388;SDS011;9830;41.876;23.474;2022-12-18T03:41:19;0.60;;;0.60;;
19388;SDS011;9830;41.876;23.474;2022-12-18T03:52:26;3.77;;;0.53;;
19388;SDS011;9830;41.876;23.474;2022-12-18T03:54:56;3.00;;;1.37;;
19388;SDS011;9830;41.876;23.474;2022-12-18T03:57:25;2.77;;;1.77;;
19388;SDS011;9830;41.876;23.474;2022-12-18T04:00:01;0.10;;;0.10;;
19388;SDS011;9830;41.876;23.474;2022-12-18T04:02:30;0.67;;;0.67;;
19388;SDS011;9830;41.876;23.474;2022-12-18T04:04:59;0.90;;;0.77;;
19388;SDS011;9830;41.876;23.474;2022-12-18T04:07:29;0.57;;;0.57;;
19388;SDS011;9830;41.876;23.474;2022-12-18T04:09:56;0.23;;;0.23;;
19388;SDS011;9830;41.876;23.474;2022-12-18T04:12:24;0.73;;;0.47;;
19388;SDS011;9830;41.876;23.474;2022-12-18T04:14:51;0.53;;;0.53;;
19388;SDS011;9830;41.876;23.474;2022-12-18T04:17:17;0.50;;;0.50;;
19388;SDS011;9830;41.876;23.474;2022-12-18T04:19:42;1.03;;;0.70;;
19388;SDS011;9830;41.876;23.474;2022-12-18T04:22:09;0.50;;;0.50;;
19388;SDS011;9830;41.876;23.474;2022-12-18T04:24:35;0.87;;;0.73;;
19388;SDS011;9830;41.876;23.474;2022-12-18T04:27:01;0.57;;;0.57;;
19388;SDS011;9830;41.876;23.474;2022-12-18T04:29:27;0.73;;;0.40;;
19388;SDS011;9830;41.876;23.474;2022-12-18T04:31:53;0.47;;;0.47;;
19388;SDS011;9830;41.876;23.474;2022-12-18T04:34:19;0.23;;;0.23;;
19388;SDS011;9830;41.876;23.474;2022-12-18T04:36:45;1.07;;;0.67;;
19388;SDS011;9830;41.876;23.474;2022-12-18T04:39:11;0.53;;;0.53;;
19388;SDS011;9830;41.876;23.474;2022-12-18T04:41:37;0.67;;;0.20;;
19388;SDS011;9830;41.876;23.474;2022-12-18T04:44:03;0.40;;;0.33;;
19388;SDS011;9830;41.876;23.474;2022-12-18T04:46:29;0.50;;;0.50;;
19388;SDS011;9830;41.876;23.474;2022-12-18T04:48:55;1.57;;;0.73;;
19388;SDS011;9830;41.876;23.474;2022-12-18T04:51:21;1.63;;;1.03;;
19388;SDS011;9830;41.876;23.474;2022-12-18T04:53:46;0.47;;;0.47;;
19388;SDS011;9830;41.876;23.474;2022-12-18T04:56:13;1.97;;;1.50;;
19388;SDS011;9830;41.876;23.474;2022-12-18T04:58:40;2.80;;;0.83;;
19388;SDS011;9830;41.876;23.474;2022-12-18T05:01:07;0.80;;;0.77;;
19388;SDS011;9830;41.876;23.474;2022-12-18T05:03:34;0.30;;;0.30;;
19388;SDS011;9830;41.876;23.474;2022-12-18T05:06:00;0.20;;;0.20;;
19388;SDS011;9830;41.876;23.474;2022-12-18T05:08:26;0.20;;;0.20;;
19388;SDS011;9830;41.876;23.474;2022-12-18T05:11:01;1.17;;;0.70;;
19388;SDS011;9830;41.876;23.474;2022-12-18T05:13:32;0.27;;;0.27;;
19388;SDS011;9830;41.876;23.474;2022-12-18T05:15:58;5.00;;;0.33;;
19388;SDS011;9830;41.876;23.474;2022-12-18T05:18:25;0.50;;;0.50;;
19388;SDS011;9830;41.876;23.474;2022-12-18T05:20:51;0.47;;;0.47;;
19388;SDS011;9830;41.876;23.474;2022-12-18T05:23:18;0.80;;;0.80;;
19388;SDS011;9830;41.876;23.474;2022-12-18T05:25:54;0.37;;;0.30;;
19388;SDS011;9830;41.876;23.474;2022-12-18T05:28:22;1.60;;;0.40;;
19388;SDS011;9830;41.876;23.474;2022-12-18T05:30:49;1.30;;;0.73;;
19388;SDS011;9830;41.876;23.474;2022-12-18T05:33:16;1.50;;;0.30;;
19388;SDS011;9830;41.876;23.474;2022-12-18T05:35:42;0.40;;;0.40;;
19388;SDS011;9830;41.876;23.474;2022-12-18T05:38:09;0.70;;;0.70;;
19388;SDS011;9830;41.876;23.474;2022-12-18T05:40:34;0.80;;;0.80;;
19388;SDS011;9830;41.876;23.474;2022-12-18T05:43:04;1.07;;;1.00;;
19388;SDS011;9830;41.876;23.474;2022-12-18T05:45:30;0.20;;;0.20;;
19388;SDS011;9830;41.876;23.474;2022-12-18T05:47:56;0.93;;;0.57;;
19388;SDS011;9830;41.876;23.474;2022-12-18T05:50:21;0.30;;;0.30;;
19388;SDS011;9830;41.876;23.474;2022-12-18T05:52:47;1.50;;;0.67;;
19388;SDS011;9830;41.876;23.474;2022-12-18T05:55:12;0.00;;;0.00;;
19388;SDS011;9830;41.876;23.474;2022-12-18T05:57:38;0.50;;;0.50;;
19388;SDS011;9830;41.876;23.474;2022-12-18T06:00:04;1.17;;;0.87;;
19388;SDS011;9830;41.876;23.474;2022-12-18T06:02:30;1.00;;;1.00;;
19388;SDS011;9830;41.876;23.474;2022-12-18T06:04:55;1.27;;;0.77;;
19388;SDS011;9830;41.876;23.474;2022-12-18T06:07:21;2.17;;;0.40;;
19388;SDS011;9830;41.876;23.474;2022-12-18T06:09:47;0.67;;;0.67;;
19388;SDS011;9830;41.876;23.474;2022-12-18T06:12:12;0.57;;;0.57;;
19388;SDS011;9830;41.876;23.474;2022-12-18T06:14:38;2.47;;;1.23;;
19388;SDS011;9830;41.876;23.474;2022-12-18T06:17:04;0.77;;;0.77;;
19388;SDS011;9830;41.876;23.474;2022-12-18T06:19:29;0.53;;;0.53;;
19388;SDS011;9830;41.876;23.474;2022-12-18T06:21:55;2.67;;;0.23;;
19388;SDS011;9830;41.876;23.474;2022-12-18T06:24:22;1.07;;;0.97;;
19388;SDS011;9830;41.876;23.474;2022-12-18T06:26:48;3.90;;;1.20;;
19388;SDS011;9830;41.876;23.474;2022-12-18T06:29:14;0.80;;;0.80;;
19388;SDS011;9830;41.876;23.474;2022-12-18T06:31:39;0.30;;;0.30;;
19388;SDS011;9830;41.876;23.474;2022-12-18T06:34:05;0.53;;;0.53;;
19388;SDS011;9830;41.876;23.474;2022-12-18T06:36:30;0.50;;;0.50;;
19388;SDS011;9830;41.876;23.474;2022-12-18T06:38:56;0.70;;;0.70;;
19388;SDS011;9830;41.876;23.474;2022-12-18T06:41:22;0.50;;;0.50;;
19388;SDS011;9830;41.876;23.474;2022-12-18T06:43:48;2.03;;;0.67;;
19388;SDS011;9830;41.876;23.474;2022-12-18T06:46:14;5.07;;;1.20;;
19388;SDS011;9830;41.876;23.474;2022-12-18T06:48:40;3.30;;;1.93;;
19388;SDS011;9830;41.876;23.474;2022-12-18T06:51:05;0.70;;;0.70;;
19388;SDS011;9830;41.876;23.474;2022-12-18T06:53:31;1.43;;;1.00;;
19388;SDS011;9830;41.876;23.474;2022-12-18T06:56:05;0.50;;;0.50;;
19388;SDS011;9830;41.876;23.474;2022-12-18T06:58:32;1.80;;;1.70;;
19388;SDS011;9830;41.876;23.474;2022-12-18T07:01:05;1.33;;;1.23;;
19388;SDS011;9830;41.876;23.474;2022-12-18T07:03:32;2.43;;;1.30;;
19388;SDS011;9830;41.876;23.474;2022-12-18T07:05:58;0.87;;;0.60;;
19388;SDS011;9830;41.876;23.474;2022-12-18T07:08:24;1.03;;;0.70;;
19388;SDS011;9830;41.876;23.474;2022-12-18T07:10:49;0.40;;;0.40;;
19388;SDS011;9830;41.876;23.474;2022-12-18T07:13:15;0.77;;;0.77;;
19388;SDS011;9830;41.876;23.474;2022-12-18T07:15:41;0.60;;;0.30;;
19388;SDS011;9830;41.876;23.474;2022-12-18T07:18:08;1.40;;;1.30;;
19388;SDS011;9830;41.876;23.474;2022-12-18T07:20:33;0.43;;;0.43;;
19388;SDS011;9830;41.876;23.474;2022-12-18T07:23:01;6.53;;;1.30;;
19388;SDS011;9830;41.876;23.474;2022-12-18T07:25:30;0.97;;;0.53;;
19388;SDS011;9830;41.876;23.474;2022-12-18T07:28:02;2.47;;;1.30;;
19388;SDS011;9830;41.876;23.474;2022-12-18T07:30:28;3.90;;;1.20;;
19388;SDS011;9830;41.876;23.474;2022-12-18T07:32:54;0.63;;;0.30;;
19388;SDS011;9830;41.876;23.474;2022-12-18T07:35:19;0.87;;;0.87;;
19388;SDS011;9830;41.876;23.474;2022-12-18T07:37:45;0.47;;;0.47;;
19388;SDS011;9830;41.876;23.474;2022-12-18T07:40:11;1.50;;;1.13;;
19388;SDS011;9830;41.876;23.474;2022-12-18T07:42:37;3.30;;;0.60;;
19388;SDS011;9830;41.876;23.474;2022-12-18T07:45:03;2.37;;;0.60;;
19388;SDS011;9830;41.876;23.474;2022-12-18T07:47:35;0.57;;;0.37;;
19388;SDS011;9830;41.876;23.474;2022-12-18T07:50:02;1.13;;;1.03;;
19388;SDS011;9830;41.876;23.474;2022-12-18T07:52:28;1.70;;;1.07;;
19388;SDS011;9830;41.876;23.474;2022-12-18T07:54:53;0.57;;;0.57;;
19388;SDS011;9830;41.876;23.474;2022-12-18T07:57:19;0.80;;;0.80;;
19388;SDS011;9830;41.876;23.474;2022-12-18T07:59:45;1.73;;;0.93;;
19388;SDS011;9830;41.876;23.474;2022-12-18T08:02:10;1.20;;;1.10;;
19388;SDS011;9830;41.876;23.474;2022-12-18T08:04:36;0.47;;;0.47;;
19388;SDS011;9830;41.876;23.474;2022-12-18T08:07:02;2.97;;;1.30;;
19388;SDS011;9830;41.876;23.474;2022-12-18T08:09:28;1.03;;;0.83;;
19388;SDS011;9830;41.876;23.474;2022-12-18T08:11:53;1.03;;;0.93;;
19388;SDS011;9830;41.876;23.474;2022-12-18T08:14:19;2.77;;;1.03;;
19388;SDS011;9830;41.876;23.474;2022-12-18T08:16:45;2.97;;;1.30;;
19388;SDS011;9830;41.876;23.474;2022-12-18T08:19:10;0.70;;;0.70;;
19388;SDS011;9830;41.876;23.474;2022-12-18T08:21:36;1.77;;;1.40;;
19388;SDS011;9830;41.876;23.474;2022-12-18T08:24:02;1.77;;;1.30;;
19388;SDS011;9830;41.876;23.474;2022-12-18T08:26:29;1.17;;;1.17;;
19388;SDS011;9830;41.876;23.474;2022-12-18T08:28:56;1.50;;;1.03;;
19388;SDS011;9830;41.876;23.474;2022-12-18T08:31:22;1.20;;;1.07;;
19388;SDS011;9830;41.876;23.474;2022-12-18T08:33:50;0.50;;;0.50;;
19388;SDS011;9830;41.876;23.474;2022-12-18T08:36:17;0.47;;;0.47;;
19388;SDS011;9830;41.876;23.474;2022-12-18T08:38:44;2.57;;;1.53;;
19388;SDS011;9830;41.876;23.474;2022-12-18T08:41:13;2.43;;;1.07;;
19388;SDS011;9830;41.876;23.474;2022-12-18T08:43:40;2.37;;;1.47;;
19388;SDS011;9830;41.876;23.474;2022-12-18T08:46:25;3.87;;;2.17;;
19388;SDS011;9830;41.876;23.474;2022-12-18T08:48:52;4.60;;;2.47;;
19388;SDS011;9830;41.876;23.474;2022-12-18T08:51:19;2.00;;;1.40;;
19388;SDS011;9830;41.876;23.474;2022-12-18T08:53:45;5.77;;;1.33;;
19388;SDS011;9830;41.876;23.474;2022-12-18T08:56:11;2.63;;;2.43;;
19388;SDS011;9830;41.876;23.474;2022-12-18T08:58:37;3.10;;;1.90;;
19388;SDS011;9830;41.876;23.474;2022-12-18T09:01:04;3.20;;;2.03;;
19388;SDS011;9830;41.876;23.474;2022-12-18T09:03:31;1.90;;;1.80;;
19388;SDS011;9830;41.876;23.474;2022-12-18T09:05:58;2.30;;;2.10;;
19388;SDS011;9830;41.876;23.474;2022-12-18T09:08:24;2.20;;;1.77;;
19388;SDS011;9830;41.876;23.474;2022-12-18T09:10:50;1.97;;;1.87;;
19388;SDS011;9830;41.876;23.474;2022-12-18T09:13:17;1.57;;;1.47;;
19388;SDS011;9830;41.876;23.474;2022-12-18T09:15:53;2.63;;;1.73;;
19388;SDS011;9830;41.876;23.474;2022-12-18T09:18:20;2.63;;;2.33;;
19388;SDS011;9830;41.876;23.474;2022-12-18T09:20:47;1.30;;;1.23;;
19388;SDS011;9830;41.876;23.474;2022-12-18T09:23:15;2.57;;;1.40;;
19388;SDS011;9830;41.876;23.474;2022-12-18T09:25:41;1.63;;;1.10;;
19388;SDS011;9830;41.876;23.474;2022-12-18T09:28:10;1.00;;;1.00;;
19388;SDS011;9830;41.876;23.474;2022-12-18T09:30:39;0.57;;;0.57;;
19388;SDS011;9830;41.876;23.474;2022-12-18T09:33:06;0.77;;;0.77;;
19388;SDS011;9830;41.876;23.474;2022-12-18T09:35:32;1.50;;;1.47;;
19388;SDS011;9830;41.876;23.474;2022-12-18T09:38:06;2.00;;;1.67;;
19388;SDS011;9830;41.876;23.474;2022-12-18T09:40:39;1.00;;;1.00;;
19388;SDS011;9830;41.876;23.474;2022-12-18T09:43:18;1.80;;;1.67;;
19388;SDS011;9830;41.876;23.474;2022-12-18T09:45:53;1.50;;;1.20;;
19388;SDS011;9830;41.876;23.474;2022-12-18T09:48:42;0.30;;;0.30;;
19388;SDS011;9830;41.876;23.474;2022-12-18T09:51:13;0.87;;;0.87;;
19388;SDS011;9830;41.876;23.474;2022-12-18T09:53:44;0.97;;;0.97;;
19388;SDS011;9830;41.876;23.474;2022-12-18T09:56:19;0.37;;;0.37;;
19388;SDS011;9830;41.876;23.474;2022-12-18T09:59:00;0.60;;;0.60;;
19388;SDS011;9830;41.876;23.474;2022-12-18T10:01:28;0.57;;;0.57;;
19388;SDS011;9830;41.876;23.474;2022-12-18T10:03:55;1.20;;;0.83;;
19388;SDS011;9830;41.876;23.474;2022-12-18T10:27:22;0.67;;;0.57;;
19388;SDS011;9830;41.876;23.474;2022-12-18T10:29:51;1.03;;;1.03;;
19388;SDS011;9830;41.876;23.474;2022-12-18T10:32:24;0.57;;;0.57;;
19388;SDS011;9830;41.876;23.474;2022-12-18T10:34:52;0.63;;;0.57;;
19388;SDS011;9830;41.876;23.474;2022-12-18T10:37:21;0.40;;;0.40;;
19388;SDS011;9830;41.876;23.474;2022-12-18T10:40:09;1.03;;;0.63;;
19388;SDS011;9830;41.876;23.474;2022-12-18T10:42:41;0.80;;;0.80;;
19388;SDS011;9830;41.876;23.474;2022-12-18T10:45:16;0.40;;;0.40;;
19388;SDS011;9830;41.876;23.474;2022-12-18T10:47:49;0.20;;;0.20;;
19388;SDS011;9830;41.876;23.474;2022-12-18T10:50:25;0.30;;;0.30;;
19388;SDS011;9830;41.876;23.474;2022-12-18T10:53:01;3.53;;;1.23;;
19388;SDS011;9830;41.876;23.474;2022-12-18T10:55:33;0.67;;;0.67;;
19388;SDS011;9830;41.876;23.474;2022-12-18T11:00:45;0.33;;;0.33;;
19388;SDS011;9830;41.876;23.474;2022-12-18T11:03:33;1.80;;;0.77;;
19388;SDS011;9830;41.876;23.474;2022-12-18T11:06:04;1.20;;;1.10;;
19388;SDS011;9830;41.876;23.474;2022-12-18T11:08:38;0.80;;;0.80;;
19388;SDS011;9830;41.876;23.474;2022-12-18T11:11:18;0.30;;;0.30;;
19388;SDS011;9830;41.876;23.474;2022-12-18T11:13:55;0.20;;;0.20;;
19388;SDS011;9830;41.876;23.474;2022-12-18T11:16:26;4.03;;;0.47;;
19388;SDS011;9830;41.876;23.474;2022-12-18T11:18:57;0.20;;;0.20;;
19388;SDS011;9830;41.876;23.474;2022-12-18T11:21:40;0.93;;;0.57;;
19388;SDS011;9830;41.876;23.474;2022-12-18T11:24:07;0.30;;;0.30;;
19388;SDS011;9830;41.876;23.474;2022-12-18T11:26:44;0.83;;;0.83;;
19388;SDS011;9830;41.876;23.474;2022-12-18T11:29:10;1.50;;;0.93;;
19388;SDS011;9830;41.876;23.474;2022-12-18T11:31:42;0.40;;;0.40;;
19388;SDS011;9830;41.876;23.474;2022-12-18T11:36:54;2.03;;;1.37;;
19388;SDS011;9830;41.876;23.474;2022-12-18T11:42:12;1.47;;;1.03;;
19388;SDS011;9830;41.876;23.474;2022-12-18T11:44:49;0.30;;;0.30;;
19388;SDS011;9830;41.876;23.474;2022-12-18T11:47:28;0.40;;;0.40;;
19388;SDS011;9830;41.876;23.474;2022-12-18T11:50:05;0.73;;;0.73;;
19388;SDS011;9830;41.876;23.474;2022-12-18T11:52:41;2.00;;;0.60;;
19388;SDS011;9830;41.876;23.474;2022-12-18T11:58:01;0.90;;;0.90;;
19388;SDS011;9830;41.876;23.474;2022-12-18T12:00:25;0.57;;;0.57;;
19388;SDS011;9830;41.876;23.474;2022-12-18T12:11:07;1.13;;;0.93;;
19388;SDS011;9830;41.876;23.474;2022-12-18T12:16:35;0.80;;;0.77;;
19388;SDS011;9830;41.876;23.474;2022-12-18T12:24:53;6.87;;;1.23;;
19388;SDS011;9830;41.876;23.474;2022-12-18T12:38:22;1.43;;;1.33;;
19388;SDS011;9830;41.876;23.474;2022-12-18T12:40:57;0.80;;;0.80;;
19388;SDS011;9830;41.876;23.474;2022-12-18T12:43:43;3.17;;;1.70;;
19388;SDS011;9830;41.876;23.474;2022-12-18T12:46:13;0.93;;;0.93;;
19388;SDS011;9830;41.876;23.474;2022-12-18T12:51:21;3.90;;;1.70;;
19388;SDS011;9830;41.876;23.474;2022-12-18T12:53:49;0.33;;;0.33;;
19388;SDS011;9830;41.876;23.474;2022-12-18T12:56:16;10.00;;;1.43;;
19388;SDS011;9830;41.876;23.474;2022-12-18T13:01:52;0.83;;;0.83;;
19388;SDS011;9830;41.876;23.474;2022-12-18T13:04:35;1.37;;;1.27;;
19388;SDS011;9830;41.876;23.474;2022-12-18T13:07:24;0.70;;;0.53;;
19388;SDS011;9830;41.876;23.474;2022-12-18T13:10:24;0.60;;;0.60;;
19388;SDS011;9830;41.876;23.474;2022-12-18T13:15:36;2.33;;;1.10;;
19388;SDS011;9830;41.876;23.474;2022-12-18T13:20:38;3.80;;;1.43;;
19388;SDS011;9830;41.876;23.474;2022-12-18T13:25:51;0.97;;;0.90;;
19388;SDS011;9830;41.876;23.474;2022-12-18T13:31:11;0.63;;;0.63;;
19388;SDS011;9830;41.876;23.474;2022-12-18T13:34:16;0.53;;;0.53;;
19388;SDS011;9830;41.876;23.474;2022-12-18T13:36:44;0.70;;;0.70;;
19388;SDS011;9830;41.876;23.474;2022-12-18T13:41:39;0.43;;;0.43;;
19388;SDS011;9830;41.876;23.474;2022-12-18T13:44:13;0.67;;;0.67;;
19388;SDS011;9830;41.876;23.474;2022-12-18T13:46:50;0.53;;;0.53;;
19388;SDS011;9830;41.876;23.474;2022-12-18T13:52:16;0.40;;;0.40;;
19388;SDS011;9830;41.876;23.474;2022-12-18T13:54:50;1.73;;;0.90;;
19388;SDS011;9830;41.876;23.474;2022-12-18T13:57:30;0.20;;;0.20;;
19388;SDS011;9830;41.876;23.474;2022-12-18T14:02:47;0.43;;;0.43;;
19388;SDS011;9830;41.876;23.474;2022-12-18T14:05:23;0.63;;;0.63;;
19388;SDS011;9830;41.876;23.474;2022-12-18T14:07:50;0.70;;;0.60;;
19388;SDS011;9830;41.876;23.474;2022-12-18T14:10:17;1.17;;;1.07;;
19388;SDS011;9830;41.876;23.474;2022-12-18T14:12:49;0.30;;;0.30;;
19388;SDS011;9830;41.876;23.474;2022-12-18T14:20:26;0.80;;;0.80;;
19388;SDS011;9830;41.876;23.474;2022-12-18T14:22:54;7.43;;;1.13;;
19388;SDS011;9830;41.876;23.474;2022-12-18T14:28:31;1.37;;;1.23;;
19388;SDS011;9830;41.876;23.474;2022-12-18T14:30:40;0.50;;;0.50;;
19388;SDS011;9830;41.876;23.474;2022-12-18T14:33:11;3.60;;;1.50;;
19388;SDS011;9830;41.876;23.474;2022-12-18T14:35:38;0.73;;;0.73;;
19388;SDS011;9830;41.876;23.474;2022-12-18T14:38:34;0.80;;;0.80;;
19388;SDS011;9830;41.876;23.474;2022-12-18T14:41:20;2.03;;;1.27;;
19388;SDS011;9830;41.876;23.474;2022-12-18T14:43:47;1.17;;;0.90;;
19388;SDS011;9830;41.876;23.474;2022-12-18T14:49:03;2.40;;;1.00;;
19388;SDS011;9830;41.876;23.474;2022-12-18T14:51:55;0.77;;;0.57;;
19388;SDS011;9830;41.876;23.474;2022-12-18T14:54:23;2.13;;;0.30;;
19388;SDS011;9830;41.876;23.474;2022-12-18T14:59:30;0.20;;;0.20;;
19388;SDS011;9830;41.876;23.474;2022-12-18T15:04:30;0.90;;;0.90;;
19388;SDS011;9830;41.876;23.474;2022-12-18T15:09:34;1.53;;;0.47;;
19388;SDS011;9830;41.876;23.474;2022-12-18T15:12:00;0.10;;;0.10;;
19388;SDS011;9830;41.876;23.474;2022-12-18T15:16:57;0.37;;;0.37;;
19388;SDS011;9830;41.876;23.474;2022-12-18T15:19:47;0.40;;;0.40;;
19388;SDS011;9830;41.876;23.474;2022-12-18T15:22:26;0.43;;;0.43;;
19388;SDS011;9830;41.876;23.474;2022-12-18T15:24:54;0.73;;;0.67;;
19388;SDS011;9830;41.876;23.474;2022-12-18T15:27:44;0.97;;;0.97;;
19388;SDS011;9830;41.876;23.474;2022-12-18T15:32:43;2.47;;;1.90;;
19388;SDS011;9830;41.876;23.474;2022-12-18T15:35:17;0.40;;;0.40;;
19388;SDS011;9830;41.876;23.474;2022-12-18T15:37:47;0.50;;;0.50;;
19388;SDS011;9830;41.876;23.474;2022-12-18T15:40:18;0.70;;;0.70;;
19388;SDS011;9830;41.876;23.474;2022-12-18T15:42:45;0.33;;;0.30;;
19388;SDS011;9830;41.876;23.474;2022-12-18T15:45:31;0.40;;;0.40;;
19388;SDS011;9830;41.876;23.474;2022-12-18T15:47:57;2.73;;;1.13;;
19388;SDS011;9830;41.876;23.474;2022-12-18T15:50:22;2.30;;;1.17;;
19388;SDS011;9830;41.876;23.474;2022-12-18T15:52:49;3.60;;;1.23;;
19388;SDS011;9830;41.876;23.474;2022-12-18T15:55:17;0.43;;;0.43;;
19388;SDS011;9830;41.876;23.474;2022-12-18T15:58:04;0.47;;;0.47;;
19388;SDS011;9830;41.876;23.474;2022-12-18T16:00:31;0.00;;;0.00;;
19388;SDS011;9830;41.876;23.474;2022-12-18T16:02:59;1.10;;;0.90;;
19388;SDS011;9830;41.876;23.474;2022-12-18T16:05:25;2.30;;;1.33;;
19388;SDS011;9830;41.876;23.474;2022-12-18T16:07:52;0.60;;;0.60;;
19388;SDS011;9830;41.876;23.474;2022-12-18T16:10:18;1.00;;;1.00;;
19388;SDS011;9830;41.876;23.474;2022-12-18T16:12:44;4.13;;;1.00;;
19388;SDS011;9830;41.876;23.474;2022-12-18T16:15:11;1.33;;;1.23;;
19388;SDS011;9830;41.876;23.474;2022-12-18T16:17:39;0.30;;;0.27;;
19388;SDS011;9830;41.876;23.474;2022-12-18T16:20:06;2.47;;;0.97;;
19388;SDS011;9830;41.876;23.474;2022-12-18T16:22:36;1.83;;;1.07;;
19388;SDS011;9830;41.876;23.474;2022-12-18T16:25:02;1.20;;;0.90;;
19388;SDS011;9830;41.876;23.474;2022-12-18T16:27:30;1.13;;;1.00;;
19388;SDS011;9830;41.876;23.474;2022-12-18T16:29:55;1.40;;;0.70;;
19388;SDS011;9830;41.876;23.474;2022-12-18T16:32:21;1.07;;;0.73;;
19388;SDS011;9830;41.876;23.474;2022-12-18T16:34:47;2.60;;;0.87;;
19388;SDS011;9830;41.876;23.474;2022-12-18T16:37:13;0.63;;;0.63;;
19388;SDS011;9830;41.876;23.474;2022-12-18T16:39:40;2.67;;;1.57;;
19388;SDS011;9830;41.876;23.474;2022-12-18T16:44:41;3.37;;;1.73;;
19388;SDS011;9830;41.876;23.474;2022-12-18T16:47:08;0.40;;;0.40;;
19388;SDS011;9830;41.876;23.474;2022-12-18T16:49:34;1.13;;;1.10;;
19388;SDS011;9830;41.876;23.474;2022-12-18T16:52:00;1.37;;;1.17;;
19388;SDS011;9830;41.876;23.474;2022-12-18T16:54:25;9.47;;;1.33;;
19388;SDS011;9830;41.876;23.474;2022-12-18T16:56:54;3.47;;;1.87;;
19388;SDS011;9830;41.876;23.474;2022-12-18T16:59:20;0.87;;;0.60;;
19388;SDS011;9830;41.876;23.474;2022-12-18T17:01:46;0.83;;;0.83;;
19388;SDS011;9830;41.876;23.474;2022-12-18T17:04:13;1.60;;;1.20;;
19388;SDS011;9830;41.876;23.474;2022-12-18T17:06:42;2.57;;;2.00;;
19388;SDS011;9830;41.876;23.474;2022-12-18T17:09:12;2.83;;;0.97;;
19388;SDS011;9830;41.876;23.474;2022-12-18T17:11:40;4.03;;;1.67;;
19388;SDS011;9830;41.876;23.474;2022-12-18T17:14:14;6.80;;;1.43;;
19388;SDS011;9830;41.876;23.474;2022-12-18T17:16:42;1.23;;;1.17;;
19388;SDS011;9830;41.876;23.474;2022-12-18T17:19:08;1.97;;;1.23;;
19388;SDS011;9830;41.876;23.474;2022-12-18T17:21:34;1.17;;;0.90;;